Главная страница
METAR-TAF:

METAR-TAF

Аэропорты :

Иркутск, Россия

широта: 52-16N, долгота: 104-19E, высота над уровнем моря: 513 м

Текущие метеонаблюдения

Эта сводка был подготовлена 28 минут назад, в 05:30 UTC
Штиль
Температура -28°C
Влажность 68%
Давление 1041 hPa
Видимость: 4100 м
Отдельные облака на высоте 1600 фута
дым

METAR: UIII 240530Z 00000MPS 4100 FU SCT016 M28/M32 Q1041 R30/810550 NOSIG RMK QFE735/0980

Время: 13:58 (05:58 UTC)

Прогноз

Эта сводка был подготовлена 58 минут назад, в 05:00 UTC
Прогноз действительный с 24-го 06 UTC до 25-го 06 UTC
Ветер 2 Узел переменных направлений
Видимость: 3100 м
Отдельные облака на высоте 1100 фута
дымка, дым
временами
С 24-го 06 UTC до 25-го 06 UTC
Видимость: 1200 м
Рассеянная облачность на высоте 400 фута
дымка, дым

TAF: UIII 240500Z 2406/2506 VRB01MPS 3100 BR FU SCT011 TEMPO 2406/2506 1200 BR FU BKN004

Метеонаблюдения и прогнозы для более 4000 аэропортов (сводки METAR и TAF).

Имеющиеся станции представлены на карте желтыми и красными точками.

Чтобы увидеть название станции, наведите на нее мышь.

Затем щелкните, чтобы увидеть метеонаблюдения и метеопрогнозы.

Управление картой: чтобы увеличить масштаб, щелкните зеленые кнопки с черным крестиком; чтобы уменьшить масштаб, щелкните зеленую кнопку с тире; для просмотра соседних карт щелкайте зеленые стрелки.


METAR-TAF: